createdAt,value
2024-02-18T00:00:49.879Z,53.79
2024-02-18T00:03:52.368Z,54.34
2024-02-18T00:06:56.858Z,54.75
2024-02-18T00:09:59.201Z,54.39
2024-02-18T00:13:01.776Z,55.02
2024-02-18T00:16:06.859Z,54.79
2024-02-18T00:19:10.313Z,54.96
2024-02-18T00:22:12.618Z,55.13
2024-02-18T00:25:14.838Z,55.30
2024-02-18T00:28:17.048Z,55.45
2024-02-18T00:31:19.217Z,55.70
2024-02-18T00:34:23.622Z,55.67
2024-02-18T00:37:27.263Z,55.99
2024-02-18T00:40:29.615Z,55.70
2024-02-18T00:43:31.802Z,56.21
2024-02-18T00:46:42.436Z,55.64
2024-02-18T00:49:50.901Z,55.69
2024-02-18T00:52:53.168Z,55.71
2024-02-18T00:55:55.400Z,55.60
2024-02-18T00:58:57.597Z,55.77
2024-02-18T01:01:59.843Z,55.78
2024-02-18T01:05:02.047Z,55.77
2024-02-18T01:08:04.546Z,55.50
2024-02-18T01:11:06.862Z,55.45
2024-02-18T01:14:09.057Z,55.65
2024-02-18T01:17:11.275Z,55.80
2024-02-18T01:20:13.501Z,56.09
2024-02-18T01:23:15.641Z,55.60
2024-02-18T01:26:17.879Z,55.86
2024-02-18T01:29:20.099Z,55.55
2024-02-18T01:32:22.400Z,55.72
2024-02-18T01:35:24.535Z,55.23
2024-02-18T01:38:26.790Z,55.68
2024-02-18T01:41:29.067Z,55.29
2024-02-18T01:44:32.110Z,55.49
2024-02-18T01:47:35.847Z,55.28
2024-02-18T01:50:38.884Z,55.24
2024-02-18T01:53:41.770Z,55.48
2024-02-18T01:56:44.698Z,55.23
2024-02-18T01:59:47.283Z,54.64
2024-02-18T02:02:50.654Z,54.68
2024-02-18T02:05:53.494Z,55.00
2024-02-18T02:08:56.252Z,54.74
2024-02-18T02:11:58.718Z,54.94
2024-02-18T02:15:01.145Z,54.77
2024-02-18T02:18:03.712Z,55.17
2024-02-18T02:21:05.914Z,55.04
2024-02-18T02:24:08.554Z,54.94
2024-02-18T02:27:13.052Z,54.71
2024-02-18T02:30:15.368Z,55.14
2024-02-18T02:33:22.465Z,55.39
2024-02-18T02:36:24.764Z,55.30
2024-02-18T02:39:27.259Z,54.98
2024-02-18T02:42:29.481Z,55.13
2024-02-18T02:45:32.468Z,55.30
2024-02-18T02:48:34.745Z,55.41
2024-02-18T02:51:36.970Z,55.37
2024-02-18T02:54:39.322Z,55.21
2024-02-18T02:57:41.635Z,55.35
2024-02-18T03:00:43.937Z,55.40
2024-02-18T03:03:46.467Z,55.36
2024-02-18T03:06:48.711Z,55.05
2024-02-18T03:09:50.918Z,55.33
2024-02-18T03:12:53.365Z,55.52
2024-02-18T03:15:55.736Z,55.02
2024-02-18T03:18:58.097Z,54.88
2024-02-18T03:22:00.599Z,54.57
2024-02-18T03:25:03.122Z,54.75
2024-02-18T03:28:06.084Z,54.93
2024-02-18T03:31:17.913Z,55.06
2024-02-18T03:34:20.473Z,54.61
2024-02-18T03:37:22.674Z,54.69
2024-02-18T03:40:25.234Z,54.61
2024-02-18T03:43:30.607Z,54.40
2024-02-18T03:46:32.920Z,54.91
2024-02-18T03:49:35.218Z,54.64
2024-02-18T03:52:37.523Z,54.33
2024-02-18T03:55:39.643Z,54.51
2024-02-18T03:58:41.942Z,54.55
2024-02-18T04:01:44.279Z,54.65
2024-02-18T04:04:46.769Z,54.75
2024-02-18T04:07:49.093Z,54.45
2024-02-18T04:10:51.251Z,54.22
2024-02-18T04:13:53.406Z,54.68
2024-02-18T04:16:55.575Z,54.26
2024-02-18T04:19:57.878Z,54.29
2024-02-18T04:23:00.329Z,54.29
2024-02-18T04:26:02.532Z,54.47
2024-02-18T04:29:04.725Z,54.45
2024-02-18T04:32:07.459Z,53.92
2024-02-18T04:35:09.887Z,54.13
2024-02-18T04:38:12.169Z,54.04
2024-02-18T04:41:15.680Z,54.29
2024-02-18T04:44:17.856Z,54.26
2024-02-18T04:47:20.065Z,53.95
2024-02-18T04:50:22.209Z,54.32
2024-02-18T04:53:24.351Z,54.59
2024-02-18T04:56:26.490Z,54.70
2024-02-18T04:59:28.705Z,55.03
2024-02-18T05:02:30.921Z,54.52
2024-02-18T05:05:33.351Z,53.97
2024-02-18T05:08:36.464Z,54.28
2024-02-18T05:11:38.726Z,54.49
2024-02-18T05:14:40.957Z,54.43
2024-02-18T05:17:43.118Z,54.42
2024-02-18T05:20:45.425Z,54.17
2024-02-18T05:23:47.794Z,54.64
2024-02-18T05:26:49.919Z,54.26
2024-02-18T05:29:52.149Z,54.06
2024-02-18T05:32:54.463Z,54.59
2024-02-18T05:35:56.743Z,54.26
2024-02-18T05:38:59.089Z,54.48
2024-02-18T05:42:01.373Z,54.37
2024-02-18T05:45:04.351Z,54.24
2024-02-18T05:48:06.852Z,54.69
2024-02-18T05:51:09.079Z,54.67
2024-02-18T05:54:11.194Z,54.76
2024-02-18T05:57:13.524Z,54.64
2024-02-18T06:00:17.109Z,54.34
2024-02-18T06:03:19.922Z,54.53
2024-02-18T06:06:22.332Z,54.84
2024-02-18T06:09:25.264Z,54.03
2024-02-18T06:12:29.119Z,54.10
2024-02-18T06:15:33.598Z,54.04
2024-02-18T06:18:36.126Z,53.89
2024-02-18T06:21:39.801Z,53.96
2024-02-18T06:24:42.104Z,53.97
2024-02-18T06:27:44.962Z,53.69
2024-02-18T06:30:47.334Z,53.04
2024-02-18T06:33:49.804Z,53.19
2024-02-18T06:36:52.077Z,53.11
2024-02-18T06:39:54.490Z,53.45
2024-02-18T06:42:56.798Z,53.16
2024-02-18T06:45:59.382Z,53.26
2024-02-18T06:49:01.653Z,53.00
2024-02-18T06:52:04.579Z,53.11
2024-02-18T06:55:07.391Z,52.74
2024-02-18T06:58:10.212Z,52.66
2024-02-18T07:01:14.431Z,52.56
2024-02-18T07:04:16.849Z,52.38
2024-02-18T07:07:19.283Z,52.27
2024-02-18T07:10:21.545Z,52.29
2024-02-18T07:13:23.791Z,52.01
2024-02-18T07:16:26.021Z,52.22
2024-02-18T07:19:28.355Z,52.11
2024-02-18T07:22:30.893Z,51.59
2024-02-18T07:25:33.853Z,51.79
2024-02-18T07:28:36.068Z,51.80
2024-02-18T07:31:38.526Z,51.84
2024-02-18T07:34:40.932Z,51.13
2024-02-18T07:37:43.535Z,51.31
2024-02-18T07:40:45.776Z,51.01
2024-02-18T07:43:48.513Z,50.57
2024-02-18T07:46:50.796Z,50.47
2024-02-18T07:49:53.023Z,50.74
2024-02-18T07:52:55.232Z,50.58
2024-02-18T07:55:57.460Z,50.66
2024-02-18T07:58:59.811Z,50.66
2024-02-18T08:02:02.079Z,50.54
2024-02-18T08:05:04.542Z,50.49
2024-02-18T08:08:06.938Z,49.87
2024-02-18T08:11:09.692Z,49.66
2024-02-18T08:14:11.975Z,49.83
2024-02-18T08:17:14.150Z,49.32
2024-02-18T08:20:16.405Z,49.56
2024-02-18T08:23:19.090Z,49.79
2024-02-18T08:26:25.607Z,48.93
2024-02-18T08:29:28.349Z,48.79
2024-02-18T08:32:30.612Z,48.54
2024-02-18T08:35:32.793Z,48.49
2024-02-18T08:38:34.989Z,48.30
2024-02-18T08:41:37.168Z,48.08
2024-02-18T08:44:39.392Z,47.29
2024-02-18T08:47:41.621Z,47.81
2024-02-18T08:50:44.088Z,47.80
2024-02-18T08:53:46.321Z,47.50
2024-02-18T08:56:48.551Z,46.59
2024-02-18T08:59:51.016Z,45.48
2024-02-18T09:02:53.191Z,46.27
2024-02-18T09:05:55.414Z,46.22
2024-02-18T09:08:57.718Z,46.39
2024-02-18T09:12:01.077Z,45.66
2024-02-18T09:15:03.371Z,45.72
2024-02-18T09:18:06.108Z,45.96
2024-02-18T09:21:08.819Z,46.02
2024-02-18T09:24:11.041Z,45.63
2024-02-18T09:27:13.225Z,45.63
2024-02-18T09:30:15.887Z,46.56
2024-02-18T09:33:18.179Z,46.93
2024-02-18T09:36:20.307Z,47.29
2024-02-18T09:39:22.446Z,48.31
2024-02-18T09:42:30.246Z,47.63
2024-02-18T09:45:34.388Z,47.34
2024-02-18T09:48:38.063Z,47.44
2024-02-18T09:51:40.719Z,47.20
2024-02-18T09:54:42.934Z,48.06
2024-02-18T09:57:45.473Z,47.60
2024-02-18T10:00:48.188Z,47.49
2024-02-18T10:03:52.097Z,47.78
2024-02-18T10:06:55.554Z,47.31
2024-02-18T10:09:59.051Z,47.51
2024-02-18T10:13:06.257Z,47.33
2024-02-18T10:16:09.030Z,47.30
2024-02-18T10:19:11.358Z,46.80
2024-02-18T10:22:14.323Z,46.78
2024-02-18T10:25:18.999Z,47.12
2024-02-18T10:28:21.588Z,46.36
2024-02-18T10:31:27.529Z,46.75
2024-02-18T10:34:29.876Z,46.61
2024-02-18T10:37:37.741Z,46.47
2024-02-18T10:40:48.708Z,46.08
2024-02-18T10:43:53.963Z,46.25
2024-02-18T10:46:56.478Z,46.41
2024-02-18T10:50:05.919Z,46.43
2024-02-18T10:53:35.479Z,46.33
2024-02-18T10:56:41.613Z,46.06
2024-02-18T10:59:58.073Z,45.67
2024-02-18T11:03:18.222Z,46.25
2024-02-18T11:06:20.766Z,46.30
2024-02-18T11:09:24.484Z,46.47
2024-02-18T11:12:26.933Z,46.49
2024-02-18T11:15:29.291Z,46.63
2024-02-18T11:18:32.322Z,46.71
2024-02-18T11:21:34.812Z,47.01
2024-02-18T11:24:37.054Z,47.21
2024-02-18T11:27:39.361Z,47.11
2024-02-18T11:30:41.611Z,47.02
2024-02-18T11:33:43.879Z,47.29
2024-02-18T11:36:47.136Z,47.34
2024-02-18T11:39:56.996Z,47.44
2024-02-18T11:42:59.629Z,47.56
2024-02-18T11:46:01.876Z,47.30
2024-02-18T11:49:04.244Z,47.17
2024-02-18T11:52:06.920Z,47.02
2024-02-18T11:55:20.586Z,46.50
2024-02-18T11:58:22.824Z,46.28
2024-02-18T12:01:26.951Z,45.60
2024-02-18T12:04:29.550Z,45.40
2024-02-18T12:07:32.192Z,44.94
2024-02-18T12:10:36.803Z,44.69
2024-02-18T12:13:40.475Z,44.51
2024-02-18T12:16:50.744Z,44.68
2024-02-18T12:19:53.624Z,44.32
2024-02-18T12:22:59.003Z,44.12
2024-02-18T12:26:04.969Z,43.78
2024-02-18T12:29:07.122Z,43.66
2024-02-18T12:32:09.570Z,43.36
2024-02-18T12:35:14.616Z,43.30
2024-02-18T12:38:16.876Z,43.16
2024-02-18T12:41:19.115Z,43.22
2024-02-18T12:45:01.830Z,43.36
2024-02-18T12:47:47.117Z,43.40
2024-02-18T12:51:12.958Z,44.06
2024-02-18T12:54:16.033Z,44.13
2024-02-18T12:57:18.216Z,44.05
2024-02-18T13:00:20.759Z,43.65
2024-02-18T13:03:23.038Z,43.90
2024-02-18T13:06:26.151Z,43.90
2024-02-18T13:09:28.529Z,43.56
2024-02-18T13:12:32.167Z,44.08
2024-02-18T13:15:34.427Z,44.36
2024-02-18T13:18:42.612Z,44.45
2024-02-18T13:21:46.759Z,44.75
2024-02-18T13:24:49.042Z,44.77
2024-02-18T13:27:51.322Z,44.79
2024-02-18T13:30:53.598Z,44.77
2024-02-18T13:33:55.952Z,44.49
2024-02-18T13:37:00.282Z,44.21
2024-02-18T13:40:03.206Z,43.75
2024-02-18T13:43:05.471Z,43.48
2024-02-18T13:46:07.785Z,43.15
2024-02-18T13:49:10.209Z,43.18
2024-02-18T13:52:12.514Z,43.14
2024-02-18T13:55:14.860Z,43.08
2024-02-18T13:58:17.117Z,42.82
2024-02-18T14:01:19.467Z,42.61
2024-02-18T14:04:21.779Z,42.62
2024-02-18T14:07:24.679Z,42.65
2024-02-18T14:10:28.419Z,42.39
2024-02-18T14:13:31.222Z,42.02
2024-02-18T14:16:36.831Z,41.83
2024-02-18T14:19:39.462Z,41.58
2024-02-18T14:22:41.725Z,41.42
2024-02-18T14:25:43.976Z,41.44
2024-02-18T14:28:46.221Z,40.80
2024-02-18T14:31:48.479Z,41.09
2024-02-18T14:34:54.281Z,41.04
2024-02-18T14:37:56.788Z,41.36
2024-02-18T14:41:00.057Z,41.19
2024-02-18T14:44:02.272Z,41.07
2024-02-18T14:47:04.652Z,41.14
2024-02-18T14:50:07.333Z,41.09
2024-02-18T14:53:09.630Z,41.52
2024-02-18T14:56:11.779Z,41.79
2024-02-18T14:59:13.954Z,41.98
2024-02-18T15:02:16.117Z,42.40
2024-02-18T15:05:18.344Z,42.85
2024-02-18T15:08:20.942Z,42.86
2024-02-18T15:11:23.306Z,43.19
2024-02-18T15:14:25.709Z,43.21
2024-02-18T15:17:28.311Z,42.98
2024-02-18T15:20:30.552Z,43.31
2024-02-18T15:23:34.527Z,43.45
2024-02-18T15:26:36.707Z,43.48
2024-02-18T15:29:38.880Z,43.18
2024-02-18T15:32:41.133Z,43.41
2024-02-18T15:35:48.411Z,43.35
2024-02-18T15:38:50.835Z,43.64
2024-02-18T15:41:53.046Z,43.96
2024-02-18T15:44:55.316Z,44.49
2024-02-18T15:47:58.049Z,44.48
2024-02-18T15:51:00.415Z,44.58
2024-02-18T15:54:02.962Z,44.72
2024-02-18T15:57:05.391Z,45.13
2024-02-18T16:00:08.790Z,45.35
2024-02-18T16:03:16.213Z,45.35
2024-02-18T16:06:19.369Z,45.63
2024-02-18T16:09:21.610Z,45.94
2024-02-18T16:12:24.440Z,46.19
2024-02-18T16:15:27.424Z,46.41
2024-02-18T16:18:29.732Z,46.48
2024-02-18T16:21:33.972Z,46.98
2024-02-18T16:24:39.937Z,46.95
2024-02-18T16:27:42.192Z,47.36
2024-02-18T16:30:45.873Z,47.88
2024-02-18T16:33:48.179Z,47.82
2024-02-18T16:36:50.483Z,48.37
2024-02-18T16:39:54.304Z,48.33
2024-02-18T16:42:56.617Z,48.74
2024-02-18T16:46:03.413Z,48.86
2024-02-18T16:49:06.447Z,48.86
2024-02-18T16:52:08.826Z,48.89
2024-02-18T16:55:11.591Z,49.46
2024-02-18T16:58:14.213Z,49.13
2024-02-18T17:01:19.328Z,49.41
2024-02-18T17:04:21.643Z,49.67
2024-02-18T17:07:24.067Z,49.67
2024-02-18T17:10:26.308Z,49.97
2024-02-18T17:13:28.511Z,50.13
2024-02-18T17:16:31.210Z,50.27
2024-02-18T17:19:33.563Z,50.23
2024-02-18T17:22:36.349Z,50.19
2024-02-18T17:25:39.600Z,50.44
2024-02-18T17:28:41.810Z,50.39
2024-02-18T17:31:43.976Z,50.37
2024-02-18T17:34:46.301Z,50.75
2024-02-18T17:37:50.118Z,50.60
2024-02-18T17:40:55.071Z,50.49
2024-02-18T17:43:57.195Z,50.59
2024-02-18T17:46:59.399Z,50.81
2024-02-18T17:50:01.779Z,50.81
2024-02-18T17:53:04.241Z,50.93
2024-02-18T17:56:08.569Z,50.89
2024-02-18T17:59:10.729Z,50.90
2024-02-18T18:02:12.951Z,51.02
2024-02-18T18:05:15.661Z,51.18
2024-02-18T18:08:18.001Z,51.26
2024-02-18T18:11:20.249Z,51.47
2024-02-18T18:14:22.526Z,51.13
2024-02-18T18:17:25.771Z,51.49
2024-02-18T18:20:28.008Z,51.39
2024-02-18T18:23:30.706Z,51.43
2024-02-18T18:26:32.857Z,51.57
2024-02-18T18:29:35.056Z,51.37
2024-02-18T18:32:37.350Z,51.39
2024-02-18T18:35:39.683Z,51.30
2024-02-18T18:38:41.895Z,51.26
2024-02-18T18:41:44.129Z,51.08
2024-02-18T18:44:47.792Z,50.98
2024-02-18T18:47:52.994Z,50.85
2024-02-18T18:50:55.474Z,50.91
2024-02-18T18:53:58.936Z,50.73
2024-02-18T18:57:01.144Z,50.95
2024-02-18T19:00:06.816Z,51.03
2024-02-18T19:03:09.080Z,50.98
2024-02-18T19:06:16.044Z,50.74
2024-02-18T19:09:18.311Z,50.68
2024-02-18T19:12:22.201Z,50.94
2024-02-18T19:15:25.319Z,51.10
2024-02-18T19:18:27.700Z,50.97
2024-02-18T19:21:30.092Z,51.12
2024-02-18T19:24:32.380Z,51.15
2024-02-18T19:27:34.627Z,51.34
2024-02-18T19:30:36.872Z,51.18
2024-02-18T19:33:39.201Z,51.08
2024-02-18T19:36:42.660Z,51.17
2024-02-18T19:39:45.064Z,51.22
2024-02-18T19:42:47.451Z,51.17
2024-02-18T19:45:49.699Z,51.25
2024-02-18T19:48:52.072Z,51.17
2024-02-18T19:51:54.416Z,51.12
2024-02-18T19:54:57.515Z,51.29
2024-02-18T19:58:00.004Z,51.03
2024-02-18T20:01:02.415Z,51.42
2024-02-18T20:04:05.005Z,51.33
2024-02-18T20:07:08.362Z,51.42
2024-02-18T20:10:11.126Z,50.90
2024-02-18T20:13:13.474Z,51.00
2024-02-18T20:16:15.768Z,50.93
2024-02-18T20:19:18.263Z,51.02
2024-02-18T20:22:20.588Z,50.89
2024-02-18T20:25:22.877Z,50.87
2024-02-18T20:28:25.191Z,50.59
2024-02-18T20:31:27.305Z,50.67
2024-02-18T20:34:29.546Z,50.69
2024-02-18T20:37:31.835Z,50.45
2024-02-18T20:40:34.543Z,50.74
2024-02-18T20:43:36.775Z,50.85
2024-02-18T20:46:39.044Z,50.68
2024-02-18T20:49:41.473Z,50.54
2024-02-18T20:52:43.780Z,50.50
2024-02-18T20:55:45.988Z,50.90
2024-02-18T20:58:48.253Z,50.71
2024-02-18T21:01:51.305Z,50.91
2024-02-18T21:04:53.572Z,50.54
2024-02-18T21:07:55.828Z,50.53
2024-02-18T21:10:58.551Z,50.31
2024-02-18T21:14:00.728Z,49.86
2024-02-18T21:17:04.387Z,50.24
2024-02-18T21:20:07.525Z,50.57
2024-02-18T21:23:09.821Z,50.49
2024-02-18T21:26:21.610Z,50.27
2024-02-18T21:29:23.825Z,50.31
2024-02-18T21:32:26.003Z,50.38
2024-02-18T21:35:28.257Z,50.06
2024-02-18T21:38:30.500Z,50.50
2024-02-18T21:41:32.684Z,50.17
2024-02-18T21:44:34.946Z,50.25
2024-02-18T21:47:37.341Z,50.23
2024-02-18T21:50:39.655Z,50.28
2024-02-18T21:53:44.965Z,50.13
2024-02-18T21:56:47.841Z,50.33
2024-02-18T21:59:50.150Z,50.36
2024-02-18T22:02:52.311Z,50.45
2024-02-18T22:05:54.590Z,50.31
2024-02-18T22:08:56.811Z,50.59
2024-02-18T22:11:58.931Z,50.50
2024-02-18T22:15:01.208Z,50.59
2024-02-18T22:18:04.173Z,50.82
2024-02-18T22:21:06.442Z,50.55
2024-02-18T22:24:08.608Z,50.25
2024-02-18T22:27:11.184Z,50.68
2024-02-18T22:30:15.634Z,50.42
2024-02-18T22:33:18.022Z,50.58
2024-02-18T22:36:20.230Z,50.58
2024-02-18T22:39:22.414Z,50.50
2024-02-18T22:42:24.643Z,50.44
2024-02-18T22:45:29.443Z,50.59
2024-02-18T22:48:32.960Z,50.65
2024-02-18T22:51:36.345Z,50.92
2024-02-18T22:54:38.723Z,50.67
2024-02-18T22:57:41.083Z,51.05
2024-02-18T23:00:44.033Z,51.04
2024-02-18T23:03:46.368Z,50.61
2024-02-18T23:06:48.644Z,50.34
2024-02-18T23:09:50.843Z,50.99
2024-02-18T23:12:53.076Z,51.28
2024-02-18T23:15:55.331Z,50.85
2024-02-18T23:18:57.628Z,50.33
2024-02-18T23:21:59.958Z,50.74
2024-02-18T23:25:02.175Z,50.70
2024-02-18T23:28:05.150Z,50.37
2024-02-18T23:31:07.498Z,50.51
2024-02-18T23:34:10.454Z,50.84
2024-02-18T23:37:13.203Z,51.10
2024-02-18T23:40:15.762Z,51.13
2024-02-18T23:43:21.943Z,51.14
2024-02-18T23:46:24.311Z,51.35
2024-02-18T23:49:26.626Z,51.06
2024-02-18T23:52:28.838Z,50.95
2024-02-18T23:55:31.024Z,50.99
2024-02-18T23:58:33.225Z,51.24
